sensor_id;sensor_type;location;lat;lon;timestamp;temperature;humidity
10263;DHT22;5177;50.068;8.156;2024-03-25T00:00:04;7.70;1.00
10263;DHT22;5177;50.068;8.156;2024-03-25T00:02:29;7.80;1.00
10263;DHT22;5177;50.068;8.156;2024-03-25T00:04:55;7.70;1.00
10263;DHT22;5177;50.068;8.156;2024-03-25T00:07:20;7.70;1.00
10263;DHT22;5177;50.068;8.156;2024-03-25T00:09:46;7.70;1.00
10263;DHT22;5177;50.068;8.156;2024-03-25T00:12:12;7.70;1.00
10263;DHT22;5177;50.068;8.156;2024-03-25T00:14:37;7.70;1.00
10263;DHT22;5177;50.068;8.156;2024-03-25T00:17:04;7.70;1.00
10263;DHT22;5177;50.068;8.156;2024-03-25T00:19:29;7.70;1.00
10263;DHT22;5177;50.068;8.156;2024-03-25T00:21:56;7.70;1.00
10263;DHT22;5177;50.068;8.156;2024-03-25T00:24:22;7.70;1.00
10263;DHT22;5177;50.068;8.156;2024-03-25T00:26:47;7.70;1.00
10263;DHT22;5177;50.068;8.156;2024-03-25T00:29:13;7.70;1.00
10263;DHT22;5177;50.068;8.156;2024-03-25T00:31:38;7.60;1.00
10263;DHT22;5177;50.068;8.156;2024-03-25T00:34:04;7.70;1.00
10263;DHT22;5177;50.068;8.156;2024-03-25T00:36:30;7.70;1.00
10263;DHT22;5177;50.068;8.156;2024-03-25T00:38:55;7.60;1.00
10263;DHT22;5177;50.068;8.156;2024-03-25T00:41:21;7.60;1.00
10263;DHT22;5177;50.068;8.156;2024-03-25T00:43:46;7.60;1.00
10263;DHT22;5177;50.068;8.156;2024-03-25T00:46:12;7.60;1.00
10263;DHT22;5177;50.068;8.156;2024-03-25T00:48:37;7.60;1.00
10263;DHT22;5177;50.068;8.156;2024-03-25T00:51:03;7.60;1.00
10263;DHT22;5177;50.068;8.156;2024-03-25T00:53:29;7.60;1.00
10263;DHT22;5177;50.068;8.156;2024-03-25T00:55:54;7.50;1.00
10263;DHT22;5177;50.068;8.156;2024-03-25T00:58:20;7.50;1.00
10263;DHT22;5177;50.068;8.156;2024-03-25T01:00:45;7.50;1.00
10263;DHT22;5177;50.068;8.156;2024-03-25T01:03:11;7.50;1.00
10263;DHT22;5177;50.068;8.156;2024-03-25T01:05:36;7.50;1.00
10263;DHT22;5177;50.068;8.156;2024-03-25T01:08:02;7.40;1.00
10263;DHT22;5177;50.068;8.156;2024-03-25T01:10:29;7.40;1.00
10263;DHT22;5177;50.068;8.156;2024-03-25T01:12:54;7.40;1.00
10263;DHT22;5177;50.068;8.156;2024-03-25T01:15:19;7.40;1.00
10263;DHT22;5177;50.068;8.156;2024-03-25T01:17:45;7.40;1.00
10263;DHT22;5177;50.068;8.156;2024-03-25T01:20:11;7.30;1.00
10263;DHT22;5177;50.068;8.156;2024-03-25T01:22:36;7.40;1.00
10263;DHT22;5177;50.068;8.156;2024-03-25T01:25:02;7.40;1.00
10263;DHT22;5177;50.068;8.156;2024-03-25T01:27:27;7.30;1.00
10263;DHT22;5177;50.068;8.156;2024-03-25T01:29:53;7.30;1.00
10263;DHT22;5177;50.068;8.156;2024-03-25T01:32:18;7.30;1.00
10263;DHT22;5177;50.068;8.156;2024-03-25T01:34:44;7.30;1.00
10263;DHT22;5177;50.068;8.156;2024-03-25T01:37:09;7.30;1.00
10263;DHT22;5177;50.068;8.156;2024-03-25T01:39:35;7.20;1.00
10263;DHT22;5177;50.068;8.156;2024-03-25T01:42:02;7.20;1.00
10263;DHT22;5177;50.068;8.156;2024-03-25T01:44:28;7.20;1.00
10263;DHT22;5177;50.068;8.156;2024-03-25T01:46:53;7.20;1.00
10263;DHT22;5177;50.068;8.156;2024-03-25T01:49:20;7.10;1.00
10263;DHT22;5177;50.068;8.156;2024-03-25T01:51:45;7.20;1.00
10263;DHT22;5177;50.068;8.156;2024-03-25T01:54:11;7.20;1.00
10263;DHT22;5177;50.068;8.156;2024-03-25T01:56:39;7.20;1.00
10263;DHT22;5177;50.068;8.156;2024-03-25T01:59:07;7.10;1.00
10263;DHT22;5177;50.068;8.156;2024-03-25T02:01:32;7.10;1.00
10263;DHT22;5177;50.068;8.156;2024-03-25T02:03:58;7.10;1.00
10263;DHT22;5177;50.068;8.156;2024-03-25T02:06:24;7.10;1.00
10263;DHT22;5177;50.068;8.156;2024-03-25T02:08:52;7.10;1.00
10263;DHT22;5177;50.068;8.156;2024-03-25T02:11:17;7.00;1.00
10263;DHT22;5177;50.068;8.156;2024-03-25T02:13:43;7.00;1.00
10263;DHT22;5177;50.068;8.156;2024-03-25T02:16:09;7.00;1.00
10263;DHT22;5177;50.068;8.156;2024-03-25T02:18:34;7.00;1.00
10263;DHT22;5177;50.068;8.156;2024-03-25T02:21:00;7.00;1.00
10263;DHT22;5177;50.068;8.156;2024-03-25T02:23:26;6.90;1.00
10263;DHT22;5177;50.068;8.156;2024-03-25T02:25:52;6.90;1.00
10263;DHT22;5177;50.068;8.156;2024-03-25T02:28:18;7.00;1.00
10263;DHT22;5177;50.068;8.156;2024-03-25T02:30:44;7.00;1.00
10263;DHT22;5177;50.068;8.156;2024-03-25T02:33:09;6.90;1.00
10263;DHT22;5177;50.068;8.156;2024-03-25T02:35:35;7.00;1.00
10263;DHT22;5177;50.068;8.156;2024-03-25T02:38:01;7.00;1.00
10263;DHT22;5177;50.068;8.156;2024-03-25T02:40:26;7.00;1.00
10263;DHT22;5177;50.068;8.156;2024-03-25T02:42:52;7.00;1.00
10263;DHT22;5177;50.068;8.156;2024-03-25T02:45:18;7.00;1.00
10263;DHT22;5177;50.068;8.156;2024-03-25T02:47:45;7.00;1.00
10263;DHT22;5177;50.068;8.156;2024-03-25T02:50:10;6.90;1.00
10263;DHT22;5177;50.068;8.156;2024-03-25T02:52:36;6.90;1.00
10263;DHT22;5177;50.068;8.156;2024-03-25T02:55:01;6.90;1.00
10263;DHT22;5177;50.068;8.156;2024-03-25T02:57:27;6.90;1.00
10263;DHT22;5177;50.068;8.156;2024-03-25T02:59:52;6.90;1.00
10263;DHT22;5177;50.068;8.156;2024-03-25T03:02:18;6.80;1.00
10263;DHT22;5177;50.068;8.156;2024-03-25T03:04:43;6.80;1.00
10263;DHT22;5177;50.068;8.156;2024-03-25T03:07:09;6.70;1.00
10263;DHT22;5177;50.068;8.156;2024-03-25T03:09:34;6.60;1.00
10263;DHT22;5177;50.068;8.156;2024-03-25T03:12:00;6.60;1.00
10263;DHT22;5177;50.068;8.156;2024-03-25T03:14:25;6.60;1.00
10263;DHT22;5177;50.068;8.156;2024-03-25T03:16:51;6.60;1.00
10263;DHT22;5177;50.068;8.156;2024-03-25T03:19:20;6.60;1.00
10263;DHT22;5177;50.068;8.156;2024-03-25T03:21:45;6.60;1.00
10263;DHT22;5177;50.068;8.156;2024-03-25T03:24:11;6.60;1.00
10263;DHT22;5177;50.068;8.156;2024-03-25T03:26:36;6.60;1.00
10263;DHT22;5177;50.068;8.156;2024-03-25T03:29:02;6.50;1.00
10263;DHT22;5177;50.068;8.156;2024-03-25T03:31:28;6.50;1.00
10263;DHT22;5177;50.068;8.156;2024-03-25T03:33:53;6.50;1.00
10263;DHT22;5177;50.068;8.156;2024-03-25T03:36:19;6.50;1.00
10263;DHT22;5177;50.068;8.156;2024-03-25T03:38:45;6.40;1.00
10263;DHT22;5177;50.068;8.156;2024-03-25T03:41:11;6.40;1.00
10263;DHT22;5177;50.068;8.156;2024-03-25T03:43:45;6.30;1.00
10263;DHT22;5177;50.068;8.156;2024-03-25T03:46:11;6.30;7.60
10263;DHT22;5177;50.068;8.156;2024-03-25T03:48:36;6.30;1.00
10263;DHT22;5177;50.068;8.156;2024-03-25T03:51:07;6.20;1.00
10263;DHT22;5177;50.068;8.156;2024-03-25T03:53:32;6.20;1.00
10263;DHT22;5177;50.068;8.156;2024-03-25T03:55:59;6.20;3.20
10263;DHT22;5177;50.068;8.156;2024-03-25T03:58:25;6.10;24.00
10263;DHT22;5177;50.068;8.156;2024-03-25T04:00:50;6.10;34.80
10263;DHT22;5177;50.068;8.156;2024-03-25T04:03:16;6.10;27.50
10263;DHT22;5177;50.068;8.156;2024-03-25T04:05:41;6.10;27.30
10263;DHT22;5177;50.068;8.156;2024-03-25T04:08:07;6.10;44.80
10263;DHT22;5177;50.068;8.156;2024-03-25T04:10:34;6.10;9.10
10263;DHT22;5177;50.068;8.156;2024-03-25T04:12:59;6.00;56.10
10263;DHT22;5177;50.068;8.156;2024-03-25T04:15:24;6.00;93.20
10263;DHT22;5177;50.068;8.156;2024-03-25T04:17:51;5.90;94.70
10263;DHT22;5177;50.068;8.156;2024-03-25T04:20:17;5.90;97.70
10263;DHT22;5177;50.068;8.156;2024-03-25T04:22:42;5.80;99.90
10263;DHT22;5177;50.068;8.156;2024-03-25T04:25:08;5.80;99.90
10263;DHT22;5177;50.068;8.156;2024-03-25T04:27:39;5.80;99.90
10263;DHT22;5177;50.068;8.156;2024-03-25T04:30:05;5.70;99.90
10263;DHT22;5177;50.068;8.156;2024-03-25T04:32:32;5.70;99.90
10263;DHT22;5177;50.068;8.156;2024-03-25T04:34:57;5.70;99.90
10263;DHT22;5177;50.068;8.156;2024-03-25T04:37:23;5.70;99.90
10263;DHT22;5177;50.068;8.156;2024-03-25T04:39:48;5.70;99.90
10263;DHT22;5177;50.068;8.156;2024-03-25T04:42:14;5.70;99.90
10263;DHT22;5177;50.068;8.156;2024-03-25T04:44:39;5.70;99.90
10263;DHT22;5177;50.068;8.156;2024-03-25T04:47:06;5.70;99.90
10263;DHT22;5177;50.068;8.156;2024-03-25T04:49:31;5.60;99.90
10263;DHT22;5177;50.068;8.156;2024-03-25T04:51:57;5.60;99.90
10263;DHT22;5177;50.068;8.156;2024-03-25T04:54:22;5.60;99.90
10263;DHT22;5177;50.068;8.156;2024-03-25T04:56:48;5.60;99.90
10263;DHT22;5177;50.068;8.156;2024-03-25T04:59:13;5.60;99.90
10263;DHT22;5177;50.068;8.156;2024-03-25T05:01:38;5.60;99.90
10263;DHT22;5177;50.068;8.156;2024-03-25T05:04:04;5.60;99.90
10263;DHT22;5177;50.068;8.156;2024-03-25T05:06:30;5.60;99.90
10263;DHT22;5177;50.068;8.156;2024-03-25T05:08:56;5.60;99.90
10263;DHT22;5177;50.068;8.156;2024-03-25T05:11:21;5.50;99.90
10263;DHT22;5177;50.068;8.156;2024-03-25T05:13:47;5.50;99.90
10263;DHT22;5177;50.068;8.156;2024-03-25T05:16:13;5.50;99.90
10263;DHT22;5177;50.068;8.156;2024-03-25T05:18:38;5.50;99.90
10263;DHT22;5177;50.068;8.156;2024-03-25T05:21:04;5.50;99.90
10263;DHT22;5177;50.068;8.156;2024-03-25T05:23:29;5.50;99.90
10263;DHT22;5177;50.068;8.156;2024-03-25T05:25:55;5.50;99.90
10263;DHT22;5177;50.068;8.156;2024-03-25T05:28:20;5.40;99.90
10263;DHT22;5177;50.068;8.156;2024-03-25T05:30:46;5.40;99.90
10263;DHT22;5177;50.068;8.156;2024-03-25T05:33:11;5.40;99.90
10263;DHT22;5177;50.068;8.156;2024-03-25T05:35:37;5.30;99.90
10263;DHT22;5177;50.068;8.156;2024-03-25T05:38:03;5.40;99.90
10263;DHT22;5177;50.068;8.156;2024-03-25T05:40:29;5.30;99.90
10263;DHT22;5177;50.068;8.156;2024-03-25T05:42:54;5.30;99.90
10263;DHT22;5177;50.068;8.156;2024-03-25T05:45:20;5.30;99.90
10263;DHT22;5177;50.068;8.156;2024-03-25T05:47:45;5.30;99.90
10263;DHT22;5177;50.068;8.156;2024-03-25T05:50:11;5.30;99.90
10263;DHT22;5177;50.068;8.156;2024-03-25T05:52:36;5.30;99.90
10263;DHT22;5177;50.068;8.156;2024-03-25T05:55:02;5.30;99.90
10263;DHT22;5177;50.068;8.156;2024-03-25T05:57:28;5.30;99.90
10263;DHT22;5177;50.068;8.156;2024-03-25T05:59:53;5.40;99.90
10263;DHT22;5177;50.068;8.156;2024-03-25T06:02:18;5.40;1.00
10263;DHT22;5177;50.068;8.156;2024-03-25T06:04:44;5.40;1.00
10263;DHT22;5177;50.068;8.156;2024-03-25T06:07:12;5.40;1.00
10263;DHT22;5177;50.068;8.156;2024-03-25T06:09:37;5.40;1.00
10263;DHT22;5177;50.068;8.156;2024-03-25T06:12:03;5.40;99.90
10263;DHT22;5177;50.068;8.156;2024-03-25T06:14:28;5.50;99.90
10263;DHT22;5177;50.068;8.156;2024-03-25T06:16:54;5.60;99.90
10263;DHT22;5177;50.068;8.156;2024-03-25T06:19:19;5.60;99.90
10263;DHT22;5177;50.068;8.156;2024-03-25T06:21:45;5.70;99.90
10263;DHT22;5177;50.068;8.156;2024-03-25T06:24:10;5.70;99.90
10263;DHT22;5177;50.068;8.156;2024-03-25T06:26:36;5.80;99.90
10263;DHT22;5177;50.068;8.156;2024-03-25T06:29:02;5.80;99.90
10263;DHT22;5177;50.068;8.156;2024-03-25T06:31:28;5.90;99.90
10263;DHT22;5177;50.068;8.156;2024-03-25T06:34:12;5.90;99.90
10263;DHT22;5177;50.068;8.156;2024-03-25T06:36:45;5.90;99.90
10263;DHT22;5177;50.068;8.156;2024-03-25T06:39:12;6.10;84.30
10263;DHT22;5177;50.068;8.156;2024-03-25T06:41:37;6.10;99.00
10263;DHT22;5177;50.068;8.156;2024-03-25T06:44:03;6.20;74.00
10263;DHT22;5177;50.068;8.156;2024-03-25T06:46:28;6.20;77.80
10263;DHT22;5177;50.068;8.156;2024-03-25T06:48:54;6.30;48.40
10263;DHT22;5177;50.068;8.156;2024-03-25T06:51:20;6.40;20.50
10263;DHT22;5177;50.068;8.156;2024-03-25T06:53:45;6.40;1.00
10263;DHT22;5177;50.068;8.156;2024-03-25T06:56:11;6.50;1.00
10263;DHT22;5177;50.068;8.156;2024-03-25T06:58:36;6.70;1.00
10263;DHT22;5177;50.068;8.156;2024-03-25T07:01:05;6.70;1.00
10263;DHT22;5177;50.068;8.156;2024-03-25T07:03:32;6.90;1.00
10263;DHT22;5177;50.068;8.156;2024-03-25T07:05:58;7.10;1.00
10263;DHT22;5177;50.068;8.156;2024-03-25T07:08:25;7.20;1.00
10263;DHT22;5177;50.068;8.156;2024-03-25T07:10:51;7.30;1.00
10263;DHT22;5177;50.068;8.156;2024-03-25T07:13:18;7.40;1.00
10263;DHT22;5177;50.068;8.156;2024-03-25T07:15:43;7.50;1.00
10263;DHT22;5177;50.068;8.156;2024-03-25T07:18:09;7.50;1.00
10263;DHT22;5177;50.068;8.156;2024-03-25T07:20:36;7.70;1.00
10263;DHT22;5177;50.068;8.156;2024-03-25T07:23:02;7.90;1.00
10263;DHT22;5177;50.068;8.156;2024-03-25T07:25:28;8.00;1.00
10263;DHT22;5177;50.068;8.156;2024-03-25T07:27:54;7.90;99.90
10263;DHT22;5177;50.068;8.156;2024-03-25T07:30:19;8.10;99.90
10263;DHT22;5177;50.068;8.156;2024-03-25T07:32:47;8.20;99.90
10263;DHT22;5177;50.068;8.156;2024-03-25T07:35:13;8.20;99.90
10263;DHT22;5177;50.068;8.156;2024-03-25T07:37:38;8.40;99.90
10263;DHT22;5177;50.068;8.156;2024-03-25T07:40:04;8.30;99.90
10263;DHT22;5177;50.068;8.156;2024-03-25T07:42:30;8.50;99.90
10263;DHT22;5177;50.068;8.156;2024-03-25T07:44:56;8.70;99.90
10263;DHT22;5177;50.068;8.156;2024-03-25T07:47:21;8.80;99.90
10263;DHT22;5177;50.068;8.156;2024-03-25T07:49:47;8.90;99.90
10263;DHT22;5177;50.068;8.156;2024-03-25T07:52:12;9.00;99.90
10263;DHT22;5177;50.068;8.156;2024-03-25T07:54:39;8.90;99.90
10263;DHT22;5177;50.068;8.156;2024-03-25T07:57:04;9.20;99.90
10263;DHT22;5177;50.068;8.156;2024-03-25T07:59:30;9.30;99.90
10263;DHT22;5177;50.068;8.156;2024-03-25T08:01:56;9.40;99.90
10263;DHT22;5177;50.068;8.156;2024-03-25T08:04:21;9.70;99.90
10263;DHT22;5177;50.068;8.156;2024-03-25T08:06:47;9.90;99.90
10263;DHT22;5177;50.068;8.156;2024-03-25T08:09:12;9.90;99.90
10263;DHT22;5177;50.068;8.156;2024-03-25T08:11:41;10.00;99.90
10263;DHT22;5177;50.068;8.156;2024-03-25T08:14:09;10.00;99.90
10263;DHT22;5177;50.068;8.156;2024-03-25T08:16:34;9.90;99.90
10263;DHT22;5177;50.068;8.156;2024-03-25T08:19:00;10.10;99.90
10263;DHT22;5177;50.068;8.156;2024-03-25T08:21:25;10.30;99.90
10263;DHT22;5177;50.068;8.156;2024-03-25T08:23:51;10.10;99.90
10263;DHT22;5177;50.068;8.156;2024-03-25T08:26:16;10.10;99.90
10263;DHT22;5177;50.068;8.156;2024-03-25T08:28:42;10.10;99.90
10263;DHT22;5177;50.068;8.156;2024-03-25T08:31:07;10.10;99.90
10263;DHT22;5177;50.068;8.156;2024-03-25T08:33:33;10.20;99.90
10263;DHT22;5177;50.068;8.156;2024-03-25T08:35:58;10.50;99.90
10263;DHT22;5177;50.068;8.156;2024-03-25T08:38:24;10.60;99.90
10263;DHT22;5177;50.068;8.156;2024-03-25T08:40:50;10.60;99.90
10263;DHT22;5177;50.068;8.156;2024-03-25T08:43:15;10.70;99.90
10263;DHT22;5177;50.068;8.156;2024-03-25T08:45:41;10.80;99.90
10263;DHT22;5177;50.068;8.156;2024-03-25T08:48:06;10.80;99.90
10263;DHT22;5177;50.068;8.156;2024-03-25T08:50:32;11.00;99.90
10263;DHT22;5177;50.068;8.156;2024-03-25T08:52:58;11.20;99.90
10263;DHT22;5177;50.068;8.156;2024-03-25T08:55:23;11.20;99.90
10263;DHT22;5177;50.068;8.156;2024-03-25T08:57:49;11.20;99.90
10263;DHT22;5177;50.068;8.156;2024-03-25T09:00:15;11.20;99.90
10263;DHT22;5177;50.068;8.156;2024-03-25T09:02:40;11.20;99.90
10263;DHT22;5177;50.068;8.156;2024-03-25T09:05:06;11.10;99.90
10263;DHT22;5177;50.068;8.156;2024-03-25T09:07:35;11.20;99.90
10263;DHT22;5177;50.068;8.156;2024-03-25T09:10:01;11.40;99.90
10263;DHT22;5177;50.068;8.156;2024-03-25T09:12:45;11.60;99.90
10263;DHT22;5177;50.068;8.156;2024-03-25T09:15:10;11.60;99.90
10263;DHT22;5177;50.068;8.156;2024-03-25T09:17:36;11.60;99.90
10263;DHT22;5177;50.068;8.156;2024-03-25T09:20:02;11.70;99.90
10263;DHT22;5177;50.068;8.156;2024-03-25T09:22:29;11.80;99.90
10263;DHT22;5177;50.068;8.156;2024-03-25T09:24:55;11.50;99.90
10263;DHT22;5177;50.068;8.156;2024-03-25T09:27:20;11.80;99.90
10263;DHT22;5177;50.068;8.156;2024-03-25T09:29:46;12.00;99.90
10263;DHT22;5177;50.068;8.156;2024-03-25T09:32:11;12.40;99.90
10263;DHT22;5177;50.068;8.156;2024-03-25T09:34:37;12.70;99.90
10263;DHT22;5177;50.068;8.156;2024-03-25T09:37:03;12.70;99.90
10263;DHT22;5177;50.068;8.156;2024-03-25T09:39:29;13.00;99.90
10263;DHT22;5177;50.068;8.156;2024-03-25T09:41:55;13.30;99.90
10263;DHT22;5177;50.068;8.156;2024-03-25T09:44:22;13.30;99.90
10263;DHT22;5177;50.068;8.156;2024-03-25T09:46:49;13.30;99.90
10263;DHT22;5177;50.068;8.156;2024-03-25T09:49:15;13.50;99.90
10263;DHT22;5177;50.068;8.156;2024-03-25T09:51:41;13.40;99.90
10263;DHT22;5177;50.068;8.156;2024-03-25T09:54:07;13.30;99.90
10263;DHT22;5177;50.068;8.156;2024-03-25T09:56:32;13.30;99.90
10263;DHT22;5177;50.068;8.156;2024-03-25T09:58:59;13.20;99.90
10263;DHT22;5177;50.068;8.156;2024-03-25T10:01:24;13.30;99.90
10263;DHT22;5177;50.068;8.156;2024-03-25T10:03:50;13.20;99.90
10263;DHT22;5177;50.068;8.156;2024-03-25T10:06:16;12.80;99.90
10263;DHT22;5177;50.068;8.156;2024-03-25T10:08:42;12.70;99.90
10263;DHT22;5177;50.068;8.156;2024-03-25T10:11:10;12.80;99.90
10263;DHT22;5177;50.068;8.156;2024-03-25T10:13:35;12.90;99.90
10263;DHT22;5177;50.068;8.156;2024-03-25T10:16:02;13.30;99.90
10263;DHT22;5177;50.068;8.156;2024-03-25T10:18:27;13.50;99.90
10263;DHT22;5177;50.068;8.156;2024-03-25T10:20:53;13.40;99.90
10263;DHT22;5177;50.068;8.156;2024-03-25T10:23:24;13.10;99.90
10263;DHT22;5177;50.068;8.156;2024-03-25T10:25:54;13.10;99.90
10263;DHT22;5177;50.068;8.156;2024-03-25T10:28:20;13.30;89.60
10263;DHT22;5177;50.068;8.156;2024-03-25T10:30:45;13.40;77.20
10263;DHT22;5177;50.068;8.156;2024-03-25T10:33:11;13.50;78.20
10263;DHT22;5177;50.068;8.156;2024-03-25T10:35:37;13.70;71.30
10263;DHT22;5177;50.068;8.156;2024-03-25T10:38:04;13.60;70.60
10263;DHT22;5177;50.068;8.156;2024-03-25T10:40:33;13.50;74.30
10263;DHT22;5177;50.068;8.156;2024-03-25T10:43:02;13.40;93.70
10263;DHT22;5177;50.068;8.156;2024-03-25T10:45:29;13.50;72.10
10263;DHT22;5177;50.068;8.156;2024-03-25T10:47:56;13.50;70.40
10263;DHT22;5177;50.068;8.156;2024-03-25T10:50:23;13.60;72.10
10263;DHT22;5177;50.068;8.156;2024-03-25T10:52:49;13.50;69.60
10263;DHT22;5177;50.068;8.156;2024-03-25T10:55:16;13.60;74.00
10263;DHT22;5177;50.068;8.156;2024-03-25T10:57:42;13.90;69.50
10263;DHT22;5177;50.068;8.156;2024-03-25T11:00:08;13.80;72.20
10263;DHT22;5177;50.068;8.156;2024-03-25T11:02:34;13.80;75.30
10263;DHT22;5177;50.068;8.156;2024-03-25T11:04:59;14.10;66.00
10263;DHT22;5177;50.068;8.156;2024-03-25T11:07:31;13.90;70.20
10263;DHT22;5177;50.068;8.156;2024-03-25T11:10:07;13.70;72.90
10263;DHT22;5177;50.068;8.156;2024-03-25T11:12:34;13.80;72.20
10263;DHT22;5177;50.068;8.156;2024-03-25T11:15:06;14.10;71.40
10263;DHT22;5177;50.068;8.156;2024-03-25T11:17:35;14.00;72.90
10263;DHT22;5177;50.068;8.156;2024-03-25T11:20:13;13.80;74.40
10263;DHT22;5177;50.068;8.156;2024-03-25T11:22:52;13.90;69.10
10263;DHT22;5177;50.068;8.156;2024-03-25T11:25:19;13.90;73.70
10263;DHT22;5177;50.068;8.156;2024-03-25T11:27:45;14.10;75.70
10263;DHT22;5177;50.068;8.156;2024-03-25T11:30:11;14.10;71.40
10263;DHT22;5177;50.068;8.156;2024-03-25T11:32:44;14.20;69.40
10263;DHT22;5177;50.068;8.156;2024-03-25T11:35:10;14.20;67.90
10263;DHT22;5177;50.068;8.156;2024-03-25T11:37:41;14.20;66.50
10263;DHT22;5177;50.068;8.156;2024-03-25T11:40:08;14.20;70.70
10263;DHT22;5177;50.068;8.156;2024-03-25T11:42:35;14.10;67.80
10263;DHT22;5177;50.068;8.156;2024-03-25T11:45:01;13.80;74.80
10263;DHT22;5177;50.068;8.156;2024-03-25T11:47:29;13.80;77.40
10263;DHT22;5177;50.068;8.156;2024-03-25T11:49:56;13.90;82.10
10263;DHT22;5177;50.068;8.156;2024-03-25T11:52:21;13.90;81.30
10263;DHT22;5177;50.068;8.156;2024-03-25T11:54:53;14.10;78.80
10263;DHT22;5177;50.068;8.156;2024-03-25T11:57:19;14.70;72.60
10263;DHT22;5177;50.068;8.156;2024-03-25T11:59:45;15.00;63.70
10263;DHT22;5177;50.068;8.156;2024-03-25T12:02:10;14.90;59.60
10263;DHT22;5177;50.068;8.156;2024-03-25T12:04:36;15.00;57.80
10263;DHT22;5177;50.068;8.156;2024-03-25T12:07:01;14.50;67.30
10263;DHT22;5177;50.068;8.156;2024-03-25T12:09:27;14.80;67.20
10263;DHT22;5177;50.068;8.156;2024-03-25T12:12:11;15.10;63.80
10263;DHT22;5177;50.068;8.156;2024-03-25T12:14:36;15.10;62.90
10263;DHT22;5177;50.068;8.156;2024-03-25T12:17:02;15.10;65.10
10263;DHT22;5177;50.068;8.156;2024-03-25T12:19:28;15.20;61.00
10263;DHT22;5177;50.068;8.156;2024-03-25T12:21:59;15.20;60.60
10263;DHT22;5177;50.068;8.156;2024-03-25T12:24:24;15.10;64.40
10263;DHT22;5177;50.068;8.156;2024-03-25T12:26:51;14.80;70.20
10263;DHT22;5177;50.068;8.156;2024-03-25T12:29:16;14.80;72.60
10263;DHT22;5177;50.068;8.156;2024-03-25T12:31:42;15.00;72.00
10263;DHT22;5177;50.068;8.156;2024-03-25T12:34:12;15.30;66.50
10263;DHT22;5177;50.068;8.156;2024-03-25T12:36:38;15.00;70.10
10263;DHT22;5177;50.068;8.156;2024-03-25T12:39:03;15.00;75.90
10263;DHT22;5177;50.068;8.156;2024-03-25T12:41:29;15.20;74.70
10263;DHT22;5177;50.068;8.156;2024-03-25T12:43:54;15.30;73.80
10263;DHT22;5177;50.068;8.156;2024-03-25T12:46:20;15.20;75.20
10263;DHT22;5177;50.068;8.156;2024-03-25T12:48:45;15.20;75.80
10263;DHT22;5177;50.068;8.156;2024-03-25T12:51:14;15.40;74.90
10263;DHT22;5177;50.068;8.156;2024-03-25T12:53:40;15.70;70.10
10263;DHT22;5177;50.068;8.156;2024-03-25T12:56:06;15.90;67.00
10263;DHT22;5177;50.068;8.156;2024-03-25T12:58:33;15.80;63.10
10263;DHT22;5177;50.068;8.156;2024-03-25T13:00:59;15.90;63.90
10263;DHT22;5177;50.068;8.156;2024-03-25T13:03:25;16.10;60.80
10263;DHT22;5177;50.068;8.156;2024-03-25T13:05:51;16.20;59.20
10263;DHT22;5177;50.068;8.156;2024-03-25T13:08:16;16.00;62.20
10263;DHT22;5177;50.068;8.156;2024-03-25T13:10:42;16.00;65.30
10263;DHT22;5177;50.068;8.156;2024-03-25T13:13:08;16.20;66.00
10263;DHT22;5177;50.068;8.156;2024-03-25T13:15:33;16.30;63.50
10263;DHT22;5177;50.068;8.156;2024-03-25T13:17:59;16.50;58.50
10263;DHT22;5177;50.068;8.156;2024-03-25T13:20:24;16.50;58.20
10263;DHT22;5177;50.068;8.156;2024-03-25T13:22:51;16.30;64.50
10263;DHT22;5177;50.068;8.156;2024-03-25T13:25:21;16.40;64.20
10263;DHT22;5177;50.068;8.156;2024-03-25T13:27:46;16.20;66.80
10263;DHT22;5177;50.068;8.156;2024-03-25T13:30:12;16.30;91.30
10263;DHT22;5177;50.068;8.156;2024-03-25T13:32:37;16.30;68.50
10263;DHT22;5177;50.068;8.156;2024-03-25T13:35:03;16.20;70.00
10263;DHT22;5177;50.068;8.156;2024-03-25T13:37:28;16.50;69.30
10263;DHT22;5177;50.068;8.156;2024-03-25T13:39:54;16.50;68.00
10263;DHT22;5177;50.068;8.156;2024-03-25T13:42:19;16.70;65.00
10263;DHT22;5177;50.068;8.156;2024-03-25T13:44:45;16.50;68.30
10263;DHT22;5177;50.068;8.156;2024-03-25T13:47:10;16.50;72.50
10263;DHT22;5177;50.068;8.156;2024-03-25T13:49:36;16.30;77.40
10263;DHT22;5177;50.068;8.156;2024-03-25T13:52:02;16.40;75.20
10263;DHT22;5177;50.068;8.156;2024-03-25T13:54:29;16.50;75.30
10263;DHT22;5177;50.068;8.156;2024-03-25T13:56:56;16.70;93.50
10263;DHT22;5177;50.068;8.156;2024-03-25T13:59:21;16.70;77.40
10263;DHT22;5177;50.068;8.156;2024-03-25T14:01:47;16.30;82.10
10263;DHT22;5177;50.068;8.156;2024-03-25T14:04:13;16.40;82.70
10263;DHT22;5177;50.068;8.156;2024-03-25T14:06:39;16.40;84.10
10263;DHT22;5177;50.068;8.156;2024-03-25T14:09:04;16.40;87.80
10263;DHT22;5177;50.068;8.156;2024-03-25T14:11:30;16.60;85.00
10263;DHT22;5177;50.068;8.156;2024-03-25T14:13:56;16.60;85.40
10263;DHT22;5177;50.068;8.156;2024-03-25T14:16:21;16.80;83.40
10263;DHT22;5177;50.068;8.156;2024-03-25T14:18:47;16.80;83.70
10263;DHT22;5177;50.068;8.156;2024-03-25T14:21:12;16.90;85.00
10263;DHT22;5177;50.068;8.156;2024-03-25T14:23:38;17.10;78.60
10263;DHT22;5177;50.068;8.156;2024-03-25T14:26:08;17.50;71.70
10263;DHT22;5177;50.068;8.156;2024-03-25T14:28:34;17.60;67.80
10263;DHT22;5177;50.068;8.156;2024-03-25T14:30:59;17.60;69.00
10263;DHT22;5177;50.068;8.156;2024-03-25T14:33:25;18.10;59.70
10263;DHT22;5177;50.068;8.156;2024-03-25T14:35:50;18.60;48.50
10263;DHT22;5177;50.068;8.156;2024-03-25T14:38:16;19.40;36.10
10263;DHT22;5177;50.068;8.156;2024-03-25T14:40:42;19.60;31.90
10263;DHT22;5177;50.068;8.156;2024-03-25T14:43:07;19.40;33.40
10263;DHT22;5177;50.068;8.156;2024-03-25T14:45:33;19.00;39.30
10263;DHT22;5177;50.068;8.156;2024-03-25T14:47:59;18.80;47.00
10263;DHT22;5177;50.068;8.156;2024-03-25T14:50:24;18.80;50.00
10263;DHT22;5177;50.068;8.156;2024-03-25T14:52:50;18.50;50.40
10263;DHT22;5177;50.068;8.156;2024-03-25T14:55:15;19.30;41.80
10263;DHT22;5177;50.068;8.156;2024-03-25T14:57:41;19.60;34.10
10263;DHT22;5177;50.068;8.156;2024-03-25T15:00:06;20.00;28.30
10263;DHT22;5177;50.068;8.156;2024-03-25T15:02:32;20.90;17.80
10263;DHT22;5177;50.068;8.156;2024-03-25T15:04:58;21.50;7.70
10263;DHT22;5177;50.068;8.156;2024-03-25T15:07:23;22.00;2.20
10263;DHT22;5177;50.068;8.156;2024-03-25T15:09:49;22.00;1.40
10263;DHT22;5177;50.068;8.156;2024-03-25T15:12:14;22.60;1.00
10263;DHT22;5177;50.068;8.156;2024-03-25T15:14:40;22.10;1.00
10263;DHT22;5177;50.068;8.156;2024-03-25T15:17:05;22.10;1.00
10263;DHT22;5177;50.068;8.156;2024-03-25T15:19:31;22.00;1.00
10263;DHT22;5177;50.068;8.156;2024-03-25T15:21:58;22.00;1.00
10263;DHT22;5177;50.068;8.156;2024-03-25T15:24:24;21.80;1.00
10263;DHT22;5177;50.068;8.156;2024-03-25T15:26:49;21.30;5.70
10263;DHT22;5177;50.068;8.156;2024-03-25T15:29:15;21.30;7.60
10263;DHT22;5177;50.068;8.156;2024-03-25T15:31:40;20.70;13.50
10263;DHT22;5177;50.068;8.156;2024-03-25T15:34:06;19.80;26.70
10263;DHT22;5177;50.068;8.156;2024-03-25T15:36:33;18.40;55.20
10263;DHT22;5177;50.068;8.156;2024-03-25T15:38:59;17.10;92.70
10263;DHT22;5177;50.068;8.156;2024-03-25T15:41:24;16.20;99.90
10263;DHT22;5177;50.068;8.156;2024-03-25T15:43:53;15.80;99.90
10263;DHT22;5177;50.068;8.156;2024-03-25T15:46:19;15.10;99.90
10263;DHT22;5177;50.068;8.156;2024-03-25T15:48:44;14.50;99.90
10263;DHT22;5177;50.068;8.156;2024-03-25T15:51:10;14.10;99.90